sensor_id;sensor_type;location;lat;lon;timestamp;temperature;humidity
4103;DHT22;2065;49.790;9.620;2022-10-03T00:02:19;15.70;61.30
4103;DHT22;2065;49.790;9.620;2022-10-03T00:05:01;15.70;60.80
4103;DHT22;2065;49.790;9.620;2022-10-03T00:07:40;15.70;60.60
4103;DHT22;2065;49.790;9.620;2022-10-03T00:10:22;15.60;61.20
4103;DHT22;2065;49.790;9.620;2022-10-03T00:13:12;15.50;61.60
4103;DHT22;2065;49.790;9.620;2022-10-03T00:15:54;15.30;61.60
4103;DHT22;2065;49.790;9.620;2022-10-03T00:18:36;15.30;62.70
4103;DHT22;2065;49.790;9.620;2022-10-03T00:21:17;15.30;63.00
4103;DHT22;2065;49.790;9.620;2022-10-03T00:23:50;15.30;62.90
4103;DHT22;2065;49.790;9.620;2022-10-03T00:26:27;14.90;64.10
4103;DHT22;2065;49.790;9.620;2022-10-03T00:29:13;15.00;64.50
4103;DHT22;2065;49.790;9.620;2022-10-03T00:31:49;15.10;64.40
4103;DHT22;2065;49.790;9.620;2022-10-03T00:34:25;15.10;63.50
4103;DHT22;2065;49.790;9.620;2022-10-03T00:37:06;15.10;63.50
4103;DHT22;2065;49.790;9.620;2022-10-03T00:39:42;15.20;63.30
4103;DHT22;2065;49.790;9.620;2022-10-03T00:51:40;15.40;62.70
4103;DHT22;2065;49.790;9.620;2022-10-03T00:54:25;15.40;62.20
4103;DHT22;2065;49.790;9.620;2022-10-03T00:57:13;15.40;62.00
4103;DHT22;2065;49.790;9.620;2022-10-03T01:00:04;15.40;62.00
4103;DHT22;2065;49.790;9.620;2022-10-03T01:02:47;15.40;62.10
4103;DHT22;2065;49.790;9.620;2022-10-03T01:05:25;15.40;62.10
4103;DHT22;2065;49.790;9.620;2022-10-03T01:11:02;15.20;62.80
4103;DHT22;2065;49.790;9.620;2022-10-03T01:13:42;15.20;63.10
4103;DHT22;2065;49.790;9.620;2022-10-03T01:16:17;15.30;62.70
4103;DHT22;2065;49.790;9.620;2022-10-03T01:18:59;14.70;64.80
4103;DHT22;2065;49.790;9.620;2022-10-03T01:21:36;14.60;65.30
4103;DHT22;2065;49.790;9.620;2022-10-03T01:24:23;14.80;64.50
4103;DHT22;2065;49.790;9.620;2022-10-03T01:26:55;14.90;64.10
4103;DHT22;2065;49.790;9.620;2022-10-03T01:29:43;15.00;63.50
4103;DHT22;2065;49.790;9.620;2022-10-03T01:32:34;14.90;63.70
4103;DHT22;2065;49.790;9.620;2022-10-03T01:35:13;14.90;62.90
4103;DHT22;2065;49.790;9.620;2022-10-03T01:37:47;14.90;62.40
4103;DHT22;2065;49.790;9.620;2022-10-03T01:40:24;15.00;62.90
4103;DHT22;2065;49.790;9.620;2022-10-03T01:42:59;15.00;63.60
4103;DHT22;2065;49.790;9.620;2022-10-03T01:45:42;14.90;65.10
4103;DHT22;2065;49.790;9.620;2022-10-03T01:48:17;15.00;64.00
4103;DHT22;2065;49.790;9.620;2022-10-03T01:50:53;15.00;62.80
4103;DHT22;2065;49.790;9.620;2022-10-03T01:53:32;15.10;62.30
4103;DHT22;2065;49.790;9.620;2022-10-03T01:56:07;15.00;62.10
4103;DHT22;2065;49.790;9.620;2022-10-03T01:58:46;14.80;62.80
4103;DHT22;2065;49.790;9.620;2022-10-03T02:01:21;14.60;62.40
4103;DHT22;2065;49.790;9.620;2022-10-03T02:03:56;14.60;62.40
4103;DHT22;2065;49.790;9.620;2022-10-03T02:06:37;14.50;63.10
4103;DHT22;2065;49.790;9.620;2022-10-03T02:09:15;14.60;62.40
4103;DHT22;2065;49.790;9.620;2022-10-03T02:12:07;14.50;63.00
4103;DHT22;2065;49.790;9.620;2022-10-03T02:14:44;14.60;62.90
4103;DHT22;2065;49.790;9.620;2022-10-03T02:17:23;14.60;62.50
4103;DHT22;2065;49.790;9.620;2022-10-03T02:19:59;14.60;61.80
4103;DHT22;2065;49.790;9.620;2022-10-03T02:22:30;14.50;62.00
4103;DHT22;2065;49.790;9.620;2022-10-03T02:25:07;14.50;62.30
4103;DHT22;2065;49.790;9.620;2022-10-03T02:27:58;14.40;63.00
4103;DHT22;2065;49.790;9.620;2022-10-03T02:30:35;14.60;62.40
4103;DHT22;2065;49.790;9.620;2022-10-03T02:36:39;14.50;61.70
4103;DHT22;2065;49.790;9.620;2022-10-03T02:39:35;14.40;61.50
4103;DHT22;2065;49.790;9.620;2022-10-03T02:42:29;14.40;61.50
4103;DHT22;2065;49.790;9.620;2022-10-03T02:48:25;14.50;61.10
4103;DHT22;2065;49.790;9.620;2022-10-03T02:51:09;14.40;60.50
4103;DHT22;2065;49.790;9.620;2022-10-03T02:57:02;14.40;60.00
4103;DHT22;2065;49.790;9.620;2022-10-03T03:06:13;14.30;59.40
4103;DHT22;2065;49.790;9.620;2022-10-03T03:12:20;14.10;60.70
4103;DHT22;2065;49.790;9.620;2022-10-03T03:15:09;14.00;60.80
4103;DHT22;2065;49.790;9.620;2022-10-03T03:17:44;14.00;60.80
4103;DHT22;2065;49.790;9.620;2022-10-03T03:20:31;14.00;61.20
4103;DHT22;2065;49.790;9.620;2022-10-03T03:29:09;13.90;60.10
4103;DHT22;2065;49.790;9.620;2022-10-03T03:31:47;13.80;61.40
4103;DHT22;2065;49.790;9.620;2022-10-03T03:34:24;13.80;61.20
4103;DHT22;2065;49.790;9.620;2022-10-03T03:37:00;13.70;60.50
4103;DHT22;2065;49.790;9.620;2022-10-03T03:39:46;13.70;61.60
4103;DHT22;2065;49.790;9.620;2022-10-03T03:42:34;13.70;61.70
4103;DHT22;2065;49.790;9.620;2022-10-03T03:45:14;13.70;61.50
4103;DHT22;2065;49.790;9.620;2022-10-03T03:47:55;13.70;61.50
4103;DHT22;2065;49.790;9.620;2022-10-03T03:50:44;13.80;60.50
4103;DHT22;2065;49.790;9.620;2022-10-03T03:53:31;13.70;60.30
4103;DHT22;2065;49.790;9.620;2022-10-03T03:56:20;13.60;60.40
4103;DHT22;2065;49.790;9.620;2022-10-03T03:58:56;13.70;60.70
4103;DHT22;2065;49.790;9.620;2022-10-03T04:01:45;13.60;61.00
4103;DHT22;2065;49.790;9.620;2022-10-03T04:04:22;13.60;60.60
4103;DHT22;2065;49.790;9.620;2022-10-03T04:07:02;13.70;60.60
4103;DHT22;2065;49.790;9.620;2022-10-03T04:09:57;13.50;60.00
4103;DHT22;2065;49.790;9.620;2022-10-03T04:12:46;13.60;60.20
4103;DHT22;2065;49.790;9.620;2022-10-03T04:15:33;13.50;60.40
4103;DHT22;2065;49.790;9.620;2022-10-03T04:18:24;13.20;60.90
4103;DHT22;2065;49.790;9.620;2022-10-03T04:21:36;13.20;61.10
4103;DHT22;2065;49.790;9.620;2022-10-03T04:24:22;13.20;61.00
4103;DHT22;2065;49.790;9.620;2022-10-03T04:27:03;13.20;60.50
4103;DHT22;2065;49.790;9.620;2022-10-03T04:29:42;13.10;61.30
4103;DHT22;2065;49.790;9.620;2022-10-03T04:32:23;13.10;61.00
4103;DHT22;2065;49.790;9.620;2022-10-03T04:35:10;13.20;59.80
4103;DHT22;2065;49.790;9.620;2022-10-03T04:37:44;13.20;60.00
4103;DHT22;2065;49.790;9.620;2022-10-03T04:40:23;13.20;59.80
4103;DHT22;2065;49.790;9.620;2022-10-03T04:43:01;13.30;59.90
4103;DHT22;2065;49.790;9.620;2022-10-03T04:45:50;13.40;59.80
4103;DHT22;2065;49.790;9.620;2022-10-03T04:48:26;13.40;59.30
4103;DHT22;2065;49.790;9.620;2022-10-03T04:51:06;13.20;59.70
4103;DHT22;2065;49.790;9.620;2022-10-03T04:53:46;13.10;59.30
4103;DHT22;2065;49.790;9.620;2022-10-03T04:56:26;13.00;60.20
4103;DHT22;2065;49.790;9.620;2022-10-03T04:59:07;13.00;59.70
4103;DHT22;2065;49.790;9.620;2022-10-03T05:01:42;13.00;60.30
4103;DHT22;2065;49.790;9.620;2022-10-03T05:04:18;12.80;62.50
4103;DHT22;2065;49.790;9.620;2022-10-03T05:06:58;12.90;61.10
4103;DHT22;2065;49.790;9.620;2022-10-03T05:09:35;12.90;59.80
4103;DHT22;2065;49.790;9.620;2022-10-03T05:12:11;12.70;60.80
4103;DHT22;2065;49.790;9.620;2022-10-03T05:14:53;12.60;60.90
4103;DHT22;2065;49.790;9.620;2022-10-03T05:17:29;12.30;62.20
4103;DHT22;2065;49.790;9.620;2022-10-03T05:20:37;12.40;61.30
4103;DHT22;2065;49.790;9.620;2022-10-03T05:23:22;12.10;62.90
4103;DHT22;2065;49.790;9.620;2022-10-03T05:25:56;12.00;63.10
4103;DHT22;2065;49.790;9.620;2022-10-03T05:28:34;12.20;64.00
4103;DHT22;2065;49.790;9.620;2022-10-03T05:31:14;12.30;63.10
4103;DHT22;2065;49.790;9.620;2022-10-03T05:33:53;12.40;62.70
4103;DHT22;2065;49.790;9.620;2022-10-03T05:36:29;12.10;62.70
4103;DHT22;2065;49.790;9.620;2022-10-03T05:39:22;12.00;63.20
4103;DHT22;2065;49.790;9.620;2022-10-03T05:41:51;12.10;63.40
4103;DHT22;2065;49.790;9.620;2022-10-03T05:44:28;12.10;63.30
4103;DHT22;2065;49.790;9.620;2022-10-03T05:47:03;12.20;62.70
4103;DHT22;2065;49.790;9.620;2022-10-03T05:50:12;12.30;62.40
4103;DHT22;2065;49.790;9.620;2022-10-03T05:53:00;12.40;61.60
4103;DHT22;2065;49.790;9.620;2022-10-03T05:55:35;12.50;61.40
4103;DHT22;2065;49.790;9.620;2022-10-03T05:58:25;12.70;61.30
4103;DHT22;2065;49.790;9.620;2022-10-03T06:01:10;12.80;60.80
4103;DHT22;2065;49.790;9.620;2022-10-03T06:03:55;12.80;60.50
4103;DHT22;2065;49.790;9.620;2022-10-03T06:06:33;12.80;60.40
4103;DHT22;2065;49.790;9.620;2022-10-03T06:09:46;12.90;60.10
4103;DHT22;2065;49.790;9.620;2022-10-03T06:12:26;12.90;59.90
4103;DHT22;2065;49.790;9.620;2022-10-03T06:15:23;12.90;60.40
4103;DHT22;2065;49.790;9.620;2022-10-03T06:18:01;12.90;60.20
4103;DHT22;2065;49.790;9.620;2022-10-03T06:21:07;13.00;59.80
4103;DHT22;2065;49.790;9.620;2022-10-03T06:24:09;13.00;60.10
4103;DHT22;2065;49.790;9.620;2022-10-03T06:26:53;13.00;60.00
4103;DHT22;2065;49.790;9.620;2022-10-03T06:29:57;13.10;59.90
4103;DHT22;2065;49.790;9.620;2022-10-03T06:39:21;13.20;60.20
4103;DHT22;2065;49.790;9.620;2022-10-03T06:42:31;13.10;60.20
4103;DHT22;2065;49.790;9.620;2022-10-03T06:45:37;13.20;61.00
4103;DHT22;2065;49.790;9.620;2022-10-03T06:48:33;13.30;60.20
4103;DHT22;2065;49.790;9.620;2022-10-03T06:51:34;13.20;60.80
4103;DHT22;2065;49.790;9.620;2022-10-03T06:57:22;13.40;60.60
4103;DHT22;2065;49.790;9.620;2022-10-03T07:00:03;13.30;61.30
4103;DHT22;2065;49.790;9.620;2022-10-03T07:03:08;13.20;61.60
4103;DHT22;2065;49.790;9.620;2022-10-03T07:06:10;13.30;61.20
4103;DHT22;2065;49.790;9.620;2022-10-03T07:12:23;13.30;62.00
4103;DHT22;2065;49.790;9.620;2022-10-03T07:15:12;13.40;61.60
4103;DHT22;2065;49.790;9.620;2022-10-03T07:21:15;13.50;61.10
4103;DHT22;2065;49.790;9.620;2022-10-03T07:24:01;13.40;61.30
4103;DHT22;2065;49.790;9.620;2022-10-03T07:26:50;13.50;61.90
4103;DHT22;2065;49.790;9.620;2022-10-03T07:29:41;13.50;62.00
4103;DHT22;2065;49.790;9.620;2022-10-03T07:32:24;13.50;62.10
4103;DHT22;2065;49.790;9.620;2022-10-03T07:42:06;13.60;63.00
4103;DHT22;2065;49.790;9.620;2022-10-03T07:45:18;13.60;62.50
4103;DHT22;2065;49.790;9.620;2022-10-03T07:48:07;13.60;63.30
4103;DHT22;2065;49.790;9.620;2022-10-03T07:50:49;13.70;64.40
4103;DHT22;2065;49.790;9.620;2022-10-03T07:56:49;13.90;66.00
4103;DHT22;2065;49.790;9.620;2022-10-03T07:59:49;14.00;67.70
4103;DHT22;2065;49.790;9.620;2022-10-03T08:02:39;14.10;67.90
4103;DHT22;2065;49.790;9.620;2022-10-03T08:05:26;14.30;67.40
4103;DHT22;2065;49.790;9.620;2022-10-03T08:08:22;14.50;67.10
4103;DHT22;2065;49.790;9.620;2022-10-03T08:11:18;14.60;66.90
4103;DHT22;2065;49.790;9.620;2022-10-03T08:14:00;14.60;67.90
4103;DHT22;2065;49.790;9.620;2022-10-03T08:16:50;14.60;68.10
4103;DHT22;2065;49.790;9.620;2022-10-03T08:19:57;14.80;68.20
4103;DHT22;2065;49.790;9.620;2022-10-03T08:22:37;14.90;67.80
4103;DHT22;2065;49.790;9.620;2022-10-03T08:25:26;15.00;67.30
4103;DHT22;2065;49.790;9.620;2022-10-03T08:31:34;15.10;67.70
4103;DHT22;2065;49.790;9.620;2022-10-03T08:34:22;15.20;68.40
4103;DHT22;2065;49.790;9.620;2022-10-03T08:37:21;15.20;68.30
4103;DHT22;2065;49.790;9.620;2022-10-03T08:40:28;15.40;67.50
4103;DHT22;2065;49.790;9.620;2022-10-03T08:43:37;15.30;67.40
4103;DHT22;2065;49.790;9.620;2022-10-03T08:46:32;15.50;67.30
4103;DHT22;2065;49.790;9.620;2022-10-03T08:49:19;15.60;67.40
4103;DHT22;2065;49.790;9.620;2022-10-03T08:52:11;15.70;67.60
4103;DHT22;2065;49.790;9.620;2022-10-03T08:55:01;15.70;66.40
4103;DHT22;2065;49.790;9.620;2022-10-03T09:00:33;16.20;66.80
4103;DHT22;2065;49.790;9.620;2022-10-03T09:03:34;16.30;66.30
4103;DHT22;2065;49.790;9.620;2022-10-03T09:06:44;16.40;65.30
4103;DHT22;2065;49.790;9.620;2022-10-03T09:09:46;16.50;65.10
4103;DHT22;2065;49.790;9.620;2022-10-03T09:13:00;16.50;65.20
4103;DHT22;2065;49.790;9.620;2022-10-03T09:15:49;16.60;64.70
4103;DHT22;2065;49.790;9.620;2022-10-03T09:18:42;16.70;64.90
4103;DHT22;2065;49.790;9.620;2022-10-03T09:21:45;16.80;64.20
4103;DHT22;2065;49.790;9.620;2022-10-03T09:27:33;17.00;64.80
4103;DHT22;2065;49.790;9.620;2022-10-03T09:30:23;17.20;65.30
4103;DHT22;2065;49.790;9.620;2022-10-03T09:36:32;17.40;64.60
4103;DHT22;2065;49.790;9.620;2022-10-03T09:39:14;17.40;63.10
4103;DHT22;2065;49.790;9.620;2022-10-03T09:42:25;17.40;61.60
4103;DHT22;2065;49.790;9.620;2022-10-03T09:45:32;17.60;62.20
4103;DHT22;2065;49.790;9.620;2022-10-03T09:48:24;17.70;62.10
4103;DHT22;2065;49.790;9.620;2022-10-03T09:51:02;17.70;59.50
4103;DHT22;2065;49.790;9.620;2022-10-03T09:56:47;17.90;60.80
4103;DHT22;2065;49.790;9.620;2022-10-03T09:59:39;18.00;61.60
4103;DHT22;2065;49.790;9.620;2022-10-03T10:02:35;17.80;59.60
4103;DHT22;2065;49.790;9.620;2022-10-03T10:08:26;17.80;59.80
4103;DHT22;2065;49.790;9.620;2022-10-03T10:11:19;18.00;59.20
4103;DHT22;2065;49.790;9.620;2022-10-03T10:14:19;18.00;58.30
4103;DHT22;2065;49.790;9.620;2022-10-03T10:17:09;18.00;58.90
4103;DHT22;2065;49.790;9.620;2022-10-03T10:19:51;18.00;59.20
4103;DHT22;2065;49.790;9.620;2022-10-03T10:32:03;18.40;58.80
4103;DHT22;2065;49.790;9.620;2022-10-03T10:35:06;18.50;58.50
4103;DHT22;2065;49.790;9.620;2022-10-03T10:44:23;18.70;56.20
4103;DHT22;2065;49.790;9.620;2022-10-03T10:56:46;19.00;55.80
4103;DHT22;2065;49.790;9.620;2022-10-03T11:03:32;19.00;55.20
4103;DHT22;2065;49.790;9.620;2022-10-03T11:13:04;19.20;55.50
4103;DHT22;2065;49.790;9.620;2022-10-03T11:28:39;18.90;55.00
4103;DHT22;2065;49.790;9.620;2022-10-03T11:34:56;18.80;56.30
4103;DHT22;2065;49.790;9.620;2022-10-03T11:37:38;18.70;56.40
4103;DHT22;2065;49.790;9.620;2022-10-03T11:40:21;18.60;55.70
4103;DHT22;2065;49.790;9.620;2022-10-03T11:43:00;18.60;55.40
4103;DHT22;2065;49.790;9.620;2022-10-03T11:45:32;18.50;55.60
4103;DHT22;2065;49.790;9.620;2022-10-03T11:48:30;18.50;56.10
4103;DHT22;2065;49.790;9.620;2022-10-03T11:51:06;18.60;55.90
4103;DHT22;2065;49.790;9.620;2022-10-03T11:53:40;18.70;56.20
4103;DHT22;2065;49.790;9.620;2022-10-03T11:56:29;18.90;55.90
4103;DHT22;2065;49.790;9.620;2022-10-03T12:02:26;19.50;54.90
4103;DHT22;2065;49.790;9.620;2022-10-03T12:05:02;19.60;54.30
4103;DHT22;2065;49.790;9.620;2022-10-03T12:07:52;19.40;52.60
4103;DHT22;2065;49.790;9.620;2022-10-03T12:10:48;19.30;54.10
4103;DHT22;2065;49.790;9.620;2022-10-03T12:13:34;18.90;53.20
4103;DHT22;2065;49.790;9.620;2022-10-03T12:16:05;19.00;55.20
4103;DHT22;2065;49.790;9.620;2022-10-03T12:18:50;19.30;52.70
4103;DHT22;2065;49.790;9.620;2022-10-03T12:21:23;19.70;52.60
4103;DHT22;2065;49.790;9.620;2022-10-03T12:26:46;19.70;51.90
4103;DHT22;2065;49.790;9.620;2022-10-03T12:29:20;19.60;52.50
4103;DHT22;2065;49.790;9.620;2022-10-03T12:32:00;19.40;52.30
4103;DHT22;2065;49.790;9.620;2022-10-03T12:34:36;19.80;53.80
4103;DHT22;2065;49.790;9.620;2022-10-03T12:37:24;20.10;51.30
4103;DHT22;2065;49.790;9.620;2022-10-03T12:40:00;20.40;51.20
4103;DHT22;2065;49.790;9.620;2022-10-03T12:42:30;20.70;50.60
4103;DHT22;2065;49.790;9.620;2022-10-03T12:45:03;21.10;50.30
4103;DHT22;2065;49.790;9.620;2022-10-03T12:47:42;21.40;49.60
4103;DHT22;2065;49.790;9.620;2022-10-03T12:50:29;21.70;48.10
4103;DHT22;2065;49.790;9.620;2022-10-03T12:53:19;21.40;47.90
4103;DHT22;2065;49.790;9.620;2022-10-03T12:56:04;21.30;48.60
4103;DHT22;2065;49.790;9.620;2022-10-03T12:58:38;20.80;48.90
4103;DHT22;2065;49.790;9.620;2022-10-03T13:01:18;20.70;49.10
4103;DHT22;2065;49.790;9.620;2022-10-03T13:03:50;20.50;49.80
4103;DHT22;2065;49.790;9.620;2022-10-03T13:06:37;20.50;49.60
4103;DHT22;2065;49.790;9.620;2022-10-03T13:09:21;20.50;49.30
4103;DHT22;2065;49.790;9.620;2022-10-03T13:11:57;20.60;49.90
4103;DHT22;2065;49.790;9.620;2022-10-03T13:14:44;20.30;50.70
4103;DHT22;2065;49.790;9.620;2022-10-03T13:17:37;20.20;51.30
4103;DHT22;2065;49.790;9.620;2022-10-03T13:20:18;20.20;50.80
4103;DHT22;2065;49.790;9.620;2022-10-03T13:22:58;19.90;50.30
4103;DHT22;2065;49.790;9.620;2022-10-03T13:25:34;20.00;51.70
4103;DHT22;2065;49.790;9.620;2022-10-03T13:28:10;19.90;50.90
4103;DHT22;2065;49.790;9.620;2022-10-03T13:30:46;19.90;51.40
4103;DHT22;2065;49.790;9.620;2022-10-03T13:33:18;20.20;50.00
4103;DHT22;2065;49.790;9.620;2022-10-03T13:35:48;20.20;48.50
4103;DHT22;2065;49.790;9.620;2022-10-03T13:38:50;19.90;49.00
4103;DHT22;2065;49.790;9.620;2022-10-03T13:41:27;19.90;50.30
4103;DHT22;2065;49.790;9.620;2022-10-03T13:43:58;19.90;49.30
4103;DHT22;2065;49.790;9.620;2022-10-03T13:46:32;20.00;50.00
4103;DHT22;2065;49.790;9.620;2022-10-03T13:49:11;20.00;47.30
4103;DHT22;2065;49.790;9.620;2022-10-03T13:51:47;19.90;46.50
4103;DHT22;2065;49.790;9.620;2022-10-03T13:54:22;19.60;48.10
4103;DHT22;2065;49.790;9.620;2022-10-03T13:56:53;19.60;47.50
4103;DHT22;2065;49.790;9.620;2022-10-03T13:59:36;19.70;48.90
4103;DHT22;2065;49.790;9.620;2022-10-03T14:02:36;19.90;49.10
4103;DHT22;2065;49.790;9.620;2022-10-03T14:05:26;20.10;49.10
4103;DHT22;2065;49.790;9.620;2022-10-03T14:07:59;20.00;48.50
4103;DHT22;2065;49.790;9.620;2022-10-03T14:13:46;20.10;49.40
4103;DHT22;2065;49.790;9.620;2022-10-03T14:16:23;20.20;50.10
4103;DHT22;2065;49.790;9.620;2022-10-03T14:18:58;20.30;49.80
4103;DHT22;2065;49.790;9.620;2022-10-03T14:21:47;20.40;49.10
4103;DHT22;2065;49.790;9.620;2022-10-03T14:24:41;20.40;48.70
4103;DHT22;2065;49.790;9.620;2022-10-03T14:27:32;20.40;49.10
4103;DHT22;2065;49.790;9.620;2022-10-03T14:30:03;20.40;49.30
4103;DHT22;2065;49.790;9.620;2022-10-03T14:32:35;20.30;49.40
4103;DHT22;2065;49.790;9.620;2022-10-03T14:35:08;20.00;50.00
4103;DHT22;2065;49.790;9.620;2022-10-03T14:37:45;19.90;49.70
4103;DHT22;2065;49.790;9.620;2022-10-03T14:40:21;19.90;50.00
4103;DHT22;2065;49.790;9.620;2022-10-03T14:43:12;19.90;50.60
4103;DHT22;2065;49.790;9.620;2022-10-03T14:45:44;19.90;50.70
4103;DHT22;2065;49.790;9.620;2022-10-03T14:48:16;20.00;50.00
4103;DHT22;2065;49.790;9.620;2022-10-03T14:50:44;20.00;50.30
4103;DHT22;2065;49.790;9.620;2022-10-03T14:53:19;20.00;50.90
4103;DHT22;2065;49.790;9.620;2022-10-03T14:55:55;19.80;51.40
4103;DHT22;2065;49.790;9.620;2022-10-03T14:58:27;19.80;50.50
4103;DHT22;2065;49.790;9.620;2022-10-03T15:01:03;19.70;51.10
4103;DHT22;2065;49.790;9.620;2022-10-03T15:03:34;19.70;50.60
4103;DHT22;2065;49.790;9.620;2022-10-03T15:06:30;19.80;51.30
4103;DHT22;2065;49.790;9.620;2022-10-03T15:09:02;19.60;50.80
4103;DHT22;2065;49.790;9.620;2022-10-03T15:11:32;19.50;51.00
4103;DHT22;2065;49.790;9.620;2022-10-03T15:14:02;19.60;51.80
4103;DHT22;2065;49.790;9.620;2022-10-03T15:16:32;19.50;52.20
4103;DHT22;2065;49.790;9.620;2022-10-03T15:19:06;19.40;51.30
4103;DHT22;2065;49.790;9.620;2022-10-03T15:21:36;19.40;51.80
4103;DHT22;2065;49.790;9.620;2022-10-03T15:24:06;19.50;52.50
4103;DHT22;2065;49.790;9.620;2022-10-03T15:26:38;19.30;51.60
4103;DHT22;2065;49.790;9.620;2022-10-03T15:29:14;19.40;52.00
4103;DHT22;2065;49.790;9.620;2022-10-03T15:31:44;19.40;51.90
4103;DHT22;2065;49.790;9.620;2022-10-03T15:34:16;19.40;52.30
4103;DHT22;2065;49.790;9.620;2022-10-03T15:36:48;19.40;52.70
4103;DHT22;2065;49.790;9.620;2022-10-03T15:39:20;19.30;52.80
4103;DHT22;2065;49.790;9.620;2022-10-03T15:41:52;19.40;52.80
4103;DHT22;2065;49.790;9.620;2022-10-03T15:44:23;19.30;53.10
4103;DHT22;2065;49.790;9.620;2022-10-03T15:46:56;19.30;53.20
4103;DHT22;2065;49.790;9.620;2022-10-03T15:49:29;19.30;53.40
4103;DHT22;2065;49.790;9.620;2022-10-03T15:52:04;19.30;53.50
4103;DHT22;2065;49.790;9.620;2022-10-03T15:54:35;19.20;53.60
4103;DHT22;2065;49.790;9.620;2022-10-03T15:57:06;19.30;53.60
4103;DHT22;2065;49.790;9.620;2022-10-03T15:59:34;19.30;53.50
4103;DHT22;2065;49.790;9.620;2022-10-03T16:02:08;19.40;53.70
4103;DHT22;2065;49.790;9.620;2022-10-03T16:04:37;19.30;53.90
4103;DHT22;2065;49.790;9.620;2022-10-03T16:07:09;19.40;54.00
4103;DHT22;2065;49.790;9.620;2022-10-03T16:09:47;19.40;53.90
4103;DHT22;2065;49.790;9.620;2022-10-03T16:15:25;19.50;53.60
4103;DHT22;2065;49.790;9.620;2022-10-03T16:17:56;19.40;53.60
4103;DHT22;2065;49.790;9.620;2022-10-03T16:20:29;19.40;53.70
4103;DHT22;2065;49.790;9.620;2022-10-03T16:23:03;19.40;53.90
4103;DHT22;2065;49.790;9.620;2022-10-03T16:25:41;19.40;53.90
4103;DHT22;2065;49.790;9.620;2022-10-03T16:28:13;19.40;54.00
4103;DHT22;2065;49.790;9.620;2022-10-03T16:30:43;19.40;54.00
4103;DHT22;2065;49.790;9.620;2022-10-03T16:33:17;19.40;53.80
4103;DHT22;2065;49.790;9.620;2022-10-03T16:35:47;19.40;54.00
4103;DHT22;2065;49.790;9.620;2022-10-03T16:38:20;19.40;54.20
4103;DHT22;2065;49.790;9.620;2022-10-03T16:40:55;19.40;54.00
4103;DHT22;2065;49.790;9.620;2022-10-03T16:43:23;19.40;54.20
4103;DHT22;2065;49.790;9.620;2022-10-03T16:45:51;19.40;54.50
4103;DHT22;2065;49.790;9.620;2022-10-03T16:48:21;19.30;53.80
4103;DHT22;2065;49.790;9.620;2022-10-03T16:51:14;19.30;54.50
4103;DHT22;2065;49.790;9.620;2022-10-03T16:53:44;19.30;54.60
4103;DHT22;2065;49.790;9.620;2022-10-03T16:56:16;19.20;54.50
4103;DHT22;2065;49.790;9.620;2022-10-03T16:58:49;19.20;54.30
4103;DHT22;2065;49.790;9.620;2022-10-03T17:01:29;19.10;54.00
4103;DHT22;2065;49.790;9.620;2022-10-03T17:04:11;19.00;53.90
4103;DHT22;2065;49.790;9.620;2022-10-03T17:06:44;18.90;54.20
4103;DHT22;2065;49.790;9.620;2022-10-03T17:09:18;18.80;54.50
4103;DHT22;2065;49.790;9.620;2022-10-03T17:11:51;18.70;54.50
4103;DHT22;2065;49.790;9.620;2022-10-03T17:14:20;18.60;54.40
4103;DHT22;2065;49.790;9.620;2022-10-03T17:16:53;18.50;54.30
4103;DHT22;2065;49.790;9.620;2022-10-03T17:19:30;18.40;54.50
4103;DHT22;2065;49.790;9.620;2022-10-03T17:22:04;18.40;54.50
4103;DHT22;2065;49.790;9.620;2022-10-03T17:24:40;18.30;54.60
4103;DHT22;2065;49.790;9.620;2022-10-03T17:27:17;18.30;54.70
4103;DHT22;2065;49.790;9.620;2022-10-03T17:29:50;18.20;54.70
4103;DHT22;2065;49.790;9.620;2022-10-03T17:32:23;18.10;55.30
4103;DHT22;2065;49.790;9.620;2022-10-03T17:34:58;18.00;54.90
4103;DHT22;2065;49.790;9.620;2022-10-03T17:37:48;17.90;55.20
4103;DHT22;2065;49.790;9.620;2022-10-03T17:40:20;17.90;55.40
4103;DHT22;2065;49.790;9.620;2022-10-03T17:42:53;17.80;55.50
4103;DHT22;2065;49.790;9.620;2022-10-03T17:45:30;17.80;55.50
4103;DHT22;2065;49.790;9.620;2022-10-03T17:48:07;17.70;56.10
4103;DHT22;2065;49.790;9.620;2022-10-03T17:50:37;17.50;56.20
4103;DHT22;2065;49.790;9.620;2022-10-03T17:53:16;17.50;56.40
4103;DHT22;2065;49.790;9.620;2022-10-03T17:55:44;17.40;56.20
4103;DHT22;2065;49.790;9.620;2022-10-03T17:58:14;17.30;56.30
4103;DHT22;2065;49.790;9.620;2022-10-03T18:00:57;17.10;56.80
4103;DHT22;2065;49.790;9.620;2022-10-03T18:03:28;16.80;57.60
4103;DHT22;2065;49.790;9.620;2022-10-03T18:06:00;16.40;58.70
4103;DHT22;2065;49.790;9.620;2022-10-03T18:08:33;16.50;58.60
4103;DHT22;2065;49.790;9.620;2022-10-03T18:11:01;16.60;58.20
4103;DHT22;2065;49.790;9.620;2022-10-03T18:13:36;16.80;57.80
4103;DHT22;2065;49.790;9.620;2022-10-03T18:16:18;16.80;57.70
4103;DHT22;2065;49.790;9.620;2022-10-03T18:19:03;16.90;57.40
4103;DHT22;2065;49.790;9.620;2022-10-03T18:21:45;17.00;57.20
4103;DHT22;2065;49.790;9.620;2022-10-03T18:24:28;17.00;57.30
4103;DHT22;2065;49.790;9.620;2022-10-03T18:27:15;17.00;57.40
4103;DHT22;2065;49.790;9.620;2022-10-03T18:29:51;17.00;57.00
4103;DHT22;2065;49.790;9.620;2022-10-03T18:32:22;17.00;56.90
4103;DHT22;2065;49.790;9.620;2022-10-03T18:35:02;17.10;56.80
4103;DHT22;2065;49.790;9.620;2022-10-03T18:40:41;16.50;57.60
4103;DHT22;2065;49.790;9.620;2022-10-03T18:43:28;16.50;57.70
4103;DHT22;2065;49.790;9.620;2022-10-03T18:46:02;16.60;57.60
4103;DHT22;2065;49.790;9.620;2022-10-03T18:48:36;16.50;56.90
4103;DHT22;2065;49.790;9.620;2022-10-03T18:51:14;16.40;57.30
4103;DHT22;2065;49.790;9.620;2022-10-03T18:53:46;16.40;57.50
4103;DHT22;2065;49.790;9.620;2022-10-03T18:56:20;16.50;57.60
4103;DHT22;2065;49.790;9.620;2022-10-03T18:59:05;16.60;57.50
4103;DHT22;2065;49.790;9.620;2022-10-03T19:01:47;16.60;57.30
4103;DHT22;2065;49.790;9.620;2022-10-03T19:04:24;16.70;57.20
4103;DHT22;2065;49.790;9.620;2022-10-03T19:06:56;16.70;56.80
4103;DHT22;2065;49.790;9.620;2022-10-03T19:09:26;16.80;56.60
4103;DHT22;2065;49.790;9.620;2022-10-03T19:11:59;16.70;56.50
4103;DHT22;2065;49.790;9.620;2022-10-03T19:14:31;16.70;56.40
4103;DHT22;2065;49.790;9.620;2022-10-03T19:17:18;16.70;56.30
4103;DHT22;2065;49.790;9.620;2022-10-03T19:19:52;16.60;56.10
4103;DHT22;2065;49.790;9.620;2022-10-03T19:22:29;16.60;56.10
4103;DHT22;2065;49.790;9.620;2022-10-03T19:24:57;16.50;56.20
4103;DHT22;2065;49.790;9.620;2022-10-03T19:27:39;16.50;56.30
4103;DHT22;2065;49.790;9.620;2022-10-03T19:30:07;16.40;56.50
4103;DHT22;2065;49.790;9.620;2022-10-03T19:32:46;16.30;56.80
4103;DHT22;2065;49.790;9.620;2022-10-03T19:35:16;16.20;56.50
4103;DHT22;2065;49.790;9.620;2022-10-03T19:37:47;16.10;56.70
4103;DHT22;2065;49.790;9.620;2022-10-03T19:40:35;16.20;57.10
4103;DHT22;2065;49.790;9.620;2022-10-03T19:46:36;16.20;56.60
4103;DHT22;2065;49.790;9.620;2022-10-03T19:52:15;16.10;56.10
4103;DHT22;2065;49.790;9.620;2022-10-03T19:54:46;16.10;56.30
4103;DHT22;2065;49.790;9.620;2022-10-03T19:57:16;16.10;56.30
4103;DHT22;2065;49.790;9.620;2022-10-03T19:59:45;16.10;56.40
4103;DHT22;2065;49.790;9.620;2022-10-03T20:02:13;16.00;56.30
4103;DHT22;2065;49.790;9.620;2022-10-03T20:04:40;16.00;56.40
4103;DHT22;2065;49.790;9.620;2022-10-03T20:07:28;16.00;56.60
4103;DHT22;2065;49.790;9.620;2022-10-03T20:10:08;15.90;57.40
4103;DHT22;2065;49.790;9.620;2022-10-03T20:12:37;15.90;57.00